createdAt,value
2018-09-12T00:00:20.254Z,58.10
2018-09-12T00:00:52.067Z,57.80
2018-09-12T00:01:23.879Z,58.00
2018-09-12T00:01:55.708Z,58.10
2018-09-12T00:02:27.517Z,58.00
2018-09-12T00:02:59.342Z,58.00
2018-09-12T00:03:31.244Z,58.10
2018-09-12T00:04:03.086Z,57.90
2018-09-12T00:04:35.364Z,58.00
2018-09-12T00:05:07.304Z,58.10
2018-09-12T00:05:39.140Z,58.10
2018-09-12T00:06:11.169Z,58.10
2018-09-12T00:06:42.957Z,58.10
2018-09-12T00:07:14.986Z,58.20
2018-09-12T00:07:46.851Z,58.00
2018-09-12T00:08:18.931Z,58.00
2018-09-12T00:08:50.798Z,58.00
2018-09-12T00:09:22.660Z,58.10
2018-09-12T00:09:54.630Z,58.10
2018-09-12T00:10:26.598Z,58.00
2018-09-12T00:10:58.442Z,58.00
2018-09-12T00:11:30.238Z,57.90
2018-09-12T00:12:02.051Z,57.90
2018-09-12T00:12:33.861Z,57.70
2018-09-12T00:13:05.717Z,58.00
2018-09-12T00:13:37.572Z,58.00
2018-09-12T00:14:09.419Z,58.00
2018-09-12T00:14:41.384Z,58.00
2018-09-12T00:15:13.537Z,57.90
2018-09-12T00:15:45.369Z,58.00
2018-09-12T00:16:17.176Z,57.90
2018-09-12T00:16:49.061Z,58.00
2018-09-12T00:17:20.916Z,58.00
2018-09-12T00:17:52.839Z,58.00
2018-09-12T00:18:24.922Z,58.00
2018-09-12T00:18:56.977Z,57.80
2018-09-12T00:19:28.827Z,57.80
2018-09-12T00:20:00.640Z,57.90
2018-09-12T00:20:32.466Z,57.90
2018-09-12T00:21:04.520Z,57.80
2018-09-12T00:21:36.342Z,57.90
2018-09-12T00:22:08.208Z,58.00
2018-09-12T00:22:40.250Z,57.90
2018-09-12T00:23:12.137Z,57.40
2018-09-12T00:23:44.268Z,57.90
2018-09-12T00:24:16.407Z,57.90
2018-09-12T00:24:48.297Z,57.30
2018-09-12T00:25:20.166Z,57.90
2018-09-12T00:25:51.991Z,58.00
2018-09-12T00:26:23.836Z,58.00
2018-09-12T00:26:55.687Z,57.90
2018-09-12T00:27:27.582Z,57.90
2018-09-12T00:27:59.476Z,57.90
2018-09-12T00:28:31.357Z,57.90
2018-09-12T00:29:03.406Z,57.90
2018-09-12T00:29:35.419Z,57.90
2018-09-12T00:30:07.481Z,57.90
2018-09-12T00:30:39.336Z,57.90
2018-09-12T00:31:11.177Z,57.90
2018-09-12T00:31:43.090Z,57.80
2018-09-12T00:32:15.096Z,58.10
2018-09-12T00:32:47.195Z,57.80
2018-09-12T00:33:19.266Z,57.90
2018-09-12T00:33:51.155Z,57.80
2018-09-12T00:34:23.027Z,57.80
2018-09-12T00:34:55.017Z,57.90
2018-09-12T00:35:26.809Z,57.90
2018-09-12T00:35:58.662Z,57.90
2018-09-12T00:36:30.556Z,57.80
2018-09-12T00:37:02.507Z,58.00
2018-09-12T00:37:34.588Z,58.00
2018-09-12T00:38:06.375Z,57.80
2018-09-12T00:38:38.226Z,58.00
2018-09-12T00:39:10.127Z,57.90
2018-09-12T00:39:41.979Z,58.10
2018-09-12T00:40:13.776Z,57.90
2018-09-12T00:40:45.605Z,57.80
2018-09-12T00:41:17.429Z,57.90
2018-09-12T00:41:49.266Z,57.90
2018-09-12T00:42:21.070Z,57.90
2018-09-12T00:42:52.886Z,58.00
2018-09-12T00:43:24.713Z,57.90
2018-09-12T00:43:56.529Z,58.00
2018-09-12T00:44:28.352Z,57.90
2018-09-12T00:45:00.187Z,57.90
2018-09-12T00:45:31.971Z,57.90
2018-09-12T00:46:03.774Z,58.00
2018-09-12T00:46:35.557Z,58.00
2018-09-12T00:47:07.394Z,58.00
2018-09-12T00:47:39.215Z,57.90
2018-09-12T00:48:11.046Z,57.90
2018-09-12T00:48:43.067Z,57.90
2018-09-12T00:49:15.015Z,57.90
2018-09-12T00:49:46.914Z,57.90
2018-09-12T00:50:18.876Z,58.00
2018-09-12T00:50:50.644Z,58.00
2018-09-12T00:51:22.474Z,57.90
2018-09-12T00:51:54.366Z,57.90
2018-09-12T00:52:26.206Z,57.90
2018-09-12T00:52:58.234Z,58.10
2018-09-12T00:53:30.085Z,57.90
2018-09-12T00:54:01.955Z,58.00
2018-09-12T00:54:33.804Z,57.90
2018-09-12T00:55:05.614Z,58.20
2018-09-12T00:55:37.455Z,57.90
2018-09-12T00:56:09.533Z,57.80
2018-09-12T00:56:41.345Z,58.50
2018-09-12T00:57:13.274Z,57.90
2018-09-12T00:57:45.182Z,57.90
2018-09-12T00:58:17.036Z,57.90
2018-09-12T00:58:48.915Z,57.90
2018-09-12T00:59:20.716Z,57.90
2018-09-12T00:59:52.669Z,58.00
2018-09-12T01:00:24.543Z,57.80
2018-09-12T01:00:56.343Z,57.90
2018-09-12T01:01:28.391Z,57.90
2018-09-12T01:02:00.464Z,57.90
2018-09-12T01:02:32.301Z,57.90
2018-09-12T01:03:04.361Z,58.00
2018-09-12T01:03:36.217Z,58.00
2018-09-12T01:04:08.065Z,58.00
2018-09-12T01:04:40.021Z,58.00
2018-09-12T01:05:12.006Z,58.00
2018-09-12T01:05:43.823Z,58.00
2018-09-12T01:06:15.671Z,58.00
2018-09-12T01:06:47.514Z,57.90
2018-09-12T01:07:19.464Z,57.90
2018-09-12T01:07:51.323Z,58.00
2018-09-12T01:08:23.289Z,58.00
2018-09-12T01:08:55.150Z,57.90
2018-09-12T01:09:27.113Z,58.00
2018-09-12T01:09:59.083Z,58.50
2018-09-12T01:10:30.913Z,58.00
2018-09-12T01:11:02.973Z,57.90
2018-09-12T01:11:34.829Z,57.90
2018-09-12T01:12:06.624Z,57.90
2018-09-12T01:12:38.415Z,57.90
2018-09-12T01:13:10.333Z,57.90
2018-09-12T01:13:42.401Z,57.90
2018-09-12T01:14:14.239Z,58.50
2018-09-12T01:14:46.145Z,57.90
2018-09-12T01:15:18.052Z,57.90
2018-09-12T01:15:50.264Z,57.80
2018-09-12T01:16:22.205Z,58.00
2018-09-12T01:16:54.053Z,58.00
2018-09-12T01:17:25.907Z,57.90
2018-09-12T01:17:57.827Z,57.70
2018-09-12T01:18:29.737Z,58.70
2018-09-12T01:19:02.002Z,58.00
2018-09-12T01:19:33.857Z,57.90
2018-09-12T01:20:05.702Z,57.90
2018-09-12T01:20:37.643Z,58.00
2018-09-12T01:21:09.585Z,58.00
2018-09-12T01:21:41.418Z,58.00
2018-09-12T01:22:13.217Z,58.00
2018-09-12T01:22:45.130Z,57.90
2018-09-12T01:23:17.178Z,58.00
2018-09-12T01:23:49.383Z,58.00
2018-09-12T01:24:21.209Z,57.90
2018-09-12T01:24:53.022Z,57.90
2018-09-12T01:25:24.838Z,57.90
2018-09-12T01:25:56.702Z,57.90
2018-09-12T01:26:28.523Z,57.90
2018-09-12T01:27:00.372Z,57.90
2018-09-12T01:27:32.263Z,57.90
2018-09-12T01:28:04.330Z,57.90
2018-09-12T01:28:36.162Z,57.80
2018-09-12T01:29:07.980Z,57.80
2018-09-12T01:29:39.851Z,57.80
2018-09-12T01:30:11.712Z,58.00
2018-09-12T01:30:43.583Z,57.90
2018-09-12T01:31:15.403Z,57.90
2018-09-12T01:31:47.371Z,57.80
2018-09-12T01:32:19.332Z,57.90
2018-09-12T01:32:51.356Z,57.90
2018-09-12T01:33:23.481Z,57.90
2018-09-12T01:33:55.754Z,57.90
2018-09-12T01:34:27.731Z,58.00
2018-09-12T01:34:59.752Z,57.90
2018-09-12T01:35:31.522Z,57.90
2018-09-12T01:36:03.331Z,57.90
2018-09-12T01:36:35.174Z,57.90
2018-09-12T01:37:07.137Z,57.90
2018-09-12T01:37:38.983Z,57.90
2018-09-12T01:38:10.776Z,57.90
2018-09-12T01:38:42.582Z,57.90
2018-09-12T01:39:14.441Z,57.80
2018-09-12T01:39:46.286Z,57.80
2018-09-12T01:40:18.073Z,57.80
2018-09-12T01:40:49.882Z,57.80
2018-09-12T01:41:21.714Z,57.80
2018-09-12T01:41:53.563Z,57.80
2018-09-12T01:42:25.352Z,57.90
2018-09-12T01:42:57.311Z,57.80
2018-09-12T01:43:29.342Z,57.90
2018-09-12T01:44:01.173Z,58.00
2018-09-12T01:44:33.160Z,57.90
2018-09-12T01:45:04.981Z,57.90
2018-09-12T01:45:36.872Z,57.80
2018-09-12T01:46:08.711Z,57.90
2018-09-12T01:46:40.604Z,57.90
2018-09-12T01:47:12.524Z,57.60
2018-09-12T01:47:44.588Z,58.10
2018-09-12T01:48:16.402Z,57.90
2018-09-12T01:48:48.242Z,57.80
2018-09-12T01:49:20.286Z,57.80
2018-09-12T01:49:52.101Z,57.80
2018-09-12T01:50:24.138Z,58.00
2018-09-12T01:50:56.196Z,57.80
2018-09-12T01:51:28.151Z,57.90
2018-09-12T01:52:00.025Z,57.80
2018-09-12T01:52:31.871Z,57.70
2018-09-12T01:53:03.789Z,57.70
2018-09-12T01:53:35.701Z,57.90
2018-09-12T01:54:07.622Z,57.90
2018-09-12T01:54:39.620Z,57.90
2018-09-12T01:55:11.473Z,57.90
2018-09-12T01:55:43.432Z,57.80
2018-09-12T01:56:15.260Z,57.80
2018-09-12T01:56:47.055Z,57.70
2018-09-12T01:57:18.847Z,57.80
2018-09-12T01:57:50.700Z,58.00
2018-09-12T01:58:22.551Z,57.80
2018-09-12T01:58:54.442Z,57.90
2018-09-12T01:59:26.482Z,57.80
2018-09-12T01:59:58.372Z,57.80
2018-09-12T02:00:30.264Z,57.70
2018-09-12T02:01:02.192Z,57.90
2018-09-12T02:01:33.960Z,57.80
2018-09-12T02:02:05.773Z,57.80
2018-09-12T02:02:37.610Z,57.80
2018-09-12T02:03:09.491Z,57.70
2018-09-12T02:03:41.401Z,57.80
2018-09-12T02:04:13.343Z,57.80
2018-09-12T02:04:45.322Z,57.90
2018-09-12T02:05:17.154Z,57.80
2018-09-12T02:05:49.019Z,57.80
2018-09-12T02:06:20.851Z,57.80
2018-09-12T02:06:52.799Z,57.80
2018-09-12T02:07:24.758Z,57.70
2018-09-12T02:07:56.771Z,57.80
2018-09-12T02:08:28.744Z,57.80
2018-09-12T02:09:00.696Z,57.80
2018-09-12T02:09:32.665Z,57.70
2018-09-12T02:10:04.752Z,57.80
2018-09-12T02:10:36.569Z,58.40
2018-09-12T02:11:08.431Z,57.70
2018-09-12T02:11:40.311Z,57.70
2018-09-12T02:12:12.195Z,57.70
2018-09-12T02:12:44.199Z,57.80
2018-09-12T02:13:16.079Z,57.60
2018-09-12T02:13:47.982Z,57.70
2018-09-12T02:14:19.916Z,57.70
2018-09-12T02:14:51.925Z,57.70
2018-09-12T02:15:23.792Z,57.70
2018-09-12T02:15:55.800Z,57.70
2018-09-12T02:16:27.649Z,57.70
2018-09-12T02:16:59.436Z,57.70
2018-09-12T02:17:31.251Z,57.70
2018-09-12T02:18:03.057Z,57.70
2018-09-12T02:18:34.988Z,57.70
2018-09-12T02:19:07.129Z,57.70
2018-09-12T02:19:39.284Z,57.80
2018-09-12T02:20:11.094Z,57.70
2018-09-12T02:20:43.056Z,57.70
2018-09-12T02:21:14.852Z,57.60
2018-09-12T02:21:46.789Z,57.70
2018-09-12T02:22:18.563Z,57.70
2018-09-12T02:22:50.413Z,57.60
2018-09-12T02:23:22.244Z,57.70
2018-09-12T02:23:54.079Z,57.60
2018-09-12T02:24:25.979Z,58.40
2018-09-12T02:24:57.928Z,57.80
2018-09-12T02:25:29.737Z,57.70
2018-09-12T02:26:01.723Z,57.70
2018-09-12T02:26:33.529Z,57.70
2018-09-12T02:27:05.454Z,57.60
2018-09-12T02:27:37.246Z,57.60
2018-09-12T02:28:09.115Z,57.60
2018-09-12T02:28:40.967Z,57.70
2018-09-12T02:29:12.880Z,57.70
2018-09-12T02:29:44.691Z,57.80
2018-09-12T02:30:16.579Z,57.70
2018-09-12T02:30:48.426Z,57.60
2018-09-12T02:31:20.285Z,57.70
2018-09-12T02:31:52.084Z,57.70
2018-09-12T02:32:24.206Z,57.70
2018-09-12T02:32:56.492Z,57.60
2018-09-12T02:33:28.299Z,57.70
2018-09-12T02:34:00.192Z,57.60
2018-09-12T02:34:31.978Z,57.70
2018-09-12T02:35:04.081Z,57.70
2018-09-12T02:35:36.054Z,57.70
2018-09-12T02:36:07.946Z,57.80
2018-09-12T02:36:39.921Z,57.80
2018-09-12T02:37:12.036Z,57.80
2018-09-12T02:37:43.933Z,57.80
2018-09-12T02:38:15.819Z,57.70
2018-09-12T02:38:47.612Z,57.70
2018-09-12T02:39:19.471Z,57.70
2018-09-12T02:39:51.409Z,57.70
2018-09-12T02:40:23.244Z,57.70
2018-09-12T02:40:55.142Z,57.70
2018-09-12T02:41:27.170Z,57.70
2018-09-12T02:41:59.119Z,57.20
2018-09-12T02:42:30.923Z,57.70
2018-09-12T02:43:02.814Z,57.80
2018-09-12T02:43:34.819Z,57.80
2018-09-12T02:44:06.778Z,57.70
2018-09-12T02:44:38.558Z,57.80
2018-09-12T02:45:10.459Z,57.80
2018-09-12T02:45:42.288Z,57.80
2018-09-12T02:46:14.253Z,57.70
2018-09-12T02:46:46.040Z,57.80
2018-09-12T02:47:17.907Z,57.70
2018-09-12T02:47:49.878Z,57.70
2018-09-12T02:48:21.718Z,57.70
2018-09-12T02:48:54.258Z,57.60
2018-09-12T02:49:26.297Z,57.60
2018-09-12T02:49:58.101Z,57.60
2018-09-12T02:50:29.935Z,57.60
2018-09-12T02:51:02.021Z,57.70
2018-09-12T02:51:33.907Z,57.70
2018-09-12T02:52:06.186Z,57.70
2018-09-12T02:52:38.096Z,57.60
2018-09-12T02:53:09.932Z,57.60
2018-09-12T02:53:41.718Z,57.60
2018-09-12T02:54:13.565Z,57.60
2018-09-12T02:54:45.379Z,57.70
2018-09-12T02:55:17.213Z,57.60
2018-09-12T02:55:49.144Z,57.60
2018-09-12T02:56:20.971Z,57.60
2018-09-12T02:56:52.822Z,57.60
2018-09-12T02:57:24.628Z,57.70
2018-09-12T02:57:56.564Z,58.30
2018-09-12T02:58:28.422Z,57.60
2018-09-12T02:59:00.308Z,57.60
2018-09-12T02:59:32.155Z,57.20
2018-09-12T03:00:04.012Z,57.70
2018-09-12T03:00:35.913Z,57.60
2018-09-12T03:01:07.811Z,57.60
2018-09-12T03:01:40.001Z,57.60
2018-09-12T03:02:12.076Z,57.60
2018-09-12T03:02:43.933Z,57.60
2018-09-12T03:03:15.716Z,57.60
2018-09-12T03:03:47.561Z,57.60
2018-09-12T03:04:19.403Z,57.70
2018-09-12T03:04:51.160Z,57.60
2018-09-12T03:05:23.009Z,57.60
2018-09-12T03:05:54.912Z,57.60
2018-09-12T03:06:26.748Z,57.60
2018-09-12T03:06:58.549Z,57.60
2018-09-12T03:07:30.515Z,57.60
2018-09-12T03:08:02.472Z,57.70
2018-09-12T03:08:34.180Z,57.60
2018-09-12T03:09:06.052Z,57.70
2018-09-12T03:09:37.857Z,58.00
2018-09-12T03:10:09.698Z,57.70
2018-09-12T03:10:41.601Z,57.70
2018-09-12T03:11:13.448Z,57.60
2018-09-12T03:11:45.232Z,57.60
2018-09-12T03:12:17.092Z,57.60
2018-09-12T03:12:49.006Z,57.50
2018-09-12T03:13:20.860Z,57.60
2018-09-12T03:13:52.656Z,57.20
2018-09-12T03:14:24.558Z,57.60
2018-09-12T03:14:56.755Z,57.60
2018-09-12T03:15:28.736Z,57.70
2018-09-12T03:16:00.593Z,57.60
2018-09-12T03:16:32.535Z,57.60
2018-09-12T03:17:04.586Z,57.60
2018-09-12T03:17:36.381Z,57.60
2018-09-12T03:18:08.185Z,57.60
2018-09-12T03:18:40.038Z,57.60
2018-09-12T03:19:11.815Z,57.50
2018-09-12T03:19:43.688Z,57.60
2018-09-12T03:20:15.539Z,57.60
2018-09-12T03:20:47.458Z,57.60
2018-09-12T03:21:19.429Z,57.60
2018-09-12T03:21:51.503Z,57.60
2018-09-12T03:22:23.664Z,57.50
2018-09-12T03:22:55.722Z,58.10
2018-09-12T03:23:28.058Z,57.50
2018-09-12T03:23:59.935Z,57.80
2018-09-12T03:24:31.933Z,57.60
2018-09-12T03:25:03.727Z,58.20
2018-09-12T03:25:35.590Z,57.60
2018-09-12T03:26:07.433Z,57.50
2018-09-12T03:26:39.293Z,57.50
2018-09-12T03:27:11.372Z,57.40
2018-09-12T03:27:43.228Z,57.40
2018-09-12T03:28:15.072Z,57.50
2018-09-12T03:28:46.867Z,57.50
2018-09-12T03:29:18.742Z,57.50
2018-09-12T03:29:50.591Z,57.50
2018-09-12T03:30:22.492Z,57.50
2018-09-12T03:30:54.574Z,57.50
2018-09-12T03:31:26.421Z,57.50
2018-09-12T03:31:58.460Z,57.50
2018-09-12T03:32:30.469Z,57.40
2018-09-12T03:33:02.313Z,57.50
2018-09-12T03:33:34.182Z,57.50
2018-09-12T03:34:06.180Z,57.60
2018-09-12T03:34:38.165Z,57.60
2018-09-12T03:35:09.974Z,57.60
2018-09-12T03:35:41.789Z,57.70
2018-09-12T03:36:13.676Z,57.50
2018-09-12T03:36:45.710Z,57.40
2018-09-12T03:37:17.495Z,57.50
2018-09-12T03:37:49.391Z,57.50
2018-09-12T03:38:21.204Z,57.60
2018-09-12T03:38:53.123Z,57.70
2018-09-12T03:39:25.374Z,57.50
2018-09-12T03:39:57.388Z,57.60
2018-09-12T03:40:29.231Z,57.50
2018-09-12T03:41:01.132Z,57.50
2018-09-12T03:41:32.943Z,57.40
2018-09-12T03:42:04.791Z,57.50
2018-09-12T03:42:36.629Z,57.50
2018-09-12T03:43:08.522Z,57.50
2018-09-12T03:43:40.410Z,57.40
2018-09-12T03:44:12.468Z,57.40
2018-09-12T03:44:44.235Z,57.40
2018-09-12T03:45:16.082Z,57.40
2018-09-12T03:45:47.963Z,57.40
2018-09-12T03:46:20.059Z,57.50
2018-09-12T03:46:51.895Z,57.50
2018-09-12T03:47:23.801Z,57.40
2018-09-12T03:47:55.762Z,57.40
2018-09-12T03:48:27.787Z,57.50
2018-09-12T03:48:59.589Z,57.50
2018-09-12T03:49:31.398Z,57.40
2018-09-12T03:50:03.369Z,57.40
2018-09-12T03:50:35.185Z,57.40
2018-09-12T03:51:07.222Z,57.50
2018-09-12T03:51:39.073Z,57.70
2018-09-12T03:52:10.887Z,57.40
2018-09-12T03:52:42.811Z,57.40
2018-09-12T03:53:14.765Z,57.40
2018-09-12T03:53:46.632Z,57.50
2018-09-12T03:54:18.565Z,57.40
2018-09-12T03:54:50.373Z,57.40
2018-09-12T03:55:22.424Z,57.40
2018-09-12T03:55:54.266Z,57.50
2018-09-12T03:56:26.092Z,57.50
2018-09-12T03:56:58.084Z,57.40
2018-09-12T03:57:29.943Z,57.40
2018-09-12T03:58:01.884Z,57.50
2018-09-12T03:58:33.676Z,57.40
2018-09-12T03:59:05.494Z,57.40
2018-09-12T03:59:37.324Z,57.40
2018-09-12T04:00:09.234Z,57.40
2018-09-12T04:00:41.011Z,57.40
2018-09-12T04:01:12.935Z,57.40
2018-09-12T04:01:44.755Z,57.30
2018-09-12T04:02:16.548Z,57.40
2018-09-12T04:02:48.428Z,57.30
2018-09-12T04:03:20.386Z,57.40
2018-09-12T04:03:52.405Z,57.40
2018-09-12T04:04:24.468Z,57.40
2018-09-12T04:04:56.262Z,57.40
2018-09-12T04:05:28.083Z,57.40
2018-09-12T04:05:59.929Z,57.40
2018-09-12T04:06:31.826Z,57.40
2018-09-12T04:07:03.633Z,57.30
2018-09-12T04:07:35.550Z,57.40
2018-09-12T04:08:07.342Z,57.40
2018-09-12T04:08:39.207Z,57.40
2018-09-12T04:09:11.054Z,57.40
2018-09-12T04:09:42.877Z,57.50
2018-09-12T04:10:14.681Z,57.70
2018-09-12T04:10:46.477Z,57.40
2018-09-12T04:11:18.496Z,57.40
2018-09-12T04:11:50.451Z,57.30
2018-09-12T04:12:22.340Z,57.50
2018-09-12T04:12:54.295Z,57.40
2018-09-12T04:13:26.292Z,57.40
2018-09-12T04:13:58.115Z,57.40
2018-09-12T04:14:30.070Z,57.30
2018-09-12T04:15:02.154Z,57.30
2018-09-12T04:15:34.258Z,57.30
2018-09-12T04:16:06.377Z,57.30
2018-09-12T04:16:38.483Z,57.40
2018-09-12T04:17:10.538Z,57.40
2018-09-12T04:17:42.436Z,57.60
2018-09-12T04:18:14.317Z,57.40
2018-09-12T04:18:46.596Z,57.30
2018-09-12T04:19:18.427Z,57.40
2018-09-12T04:19:50.310Z,57.40
2018-09-12T04:20:22.222Z,57.40
2018-09-12T04:20:54.187Z,57.30
2018-09-12T04:21:26.132Z,57.30
2018-09-12T04:21:57.988Z,57.90
2018-09-12T04:22:29.833Z,57.30
2018-09-12T04:23:01.877Z,57.40
2018-09-12T04:23:33.789Z,57.40
2018-09-12T04:24:05.798Z,57.40
2018-09-12T04:24:37.773Z,57.30
2018-09-12T04:25:09.572Z,57.30
2018-09-12T04:25:41.345Z,57.40
2018-09-12T04:26:13.230Z,57.30
2018-09-12T04:26:45.059Z,57.40
2018-09-12T04:27:16.959Z,56.80
2018-09-12T04:27:48.919Z,57.30
2018-09-12T04:28:20.798Z,57.20
2018-09-12T04:28:52.639Z,57.30
2018-09-12T04:29:24.438Z,57.30
2018-09-12T04:29:56.269Z,57.30
2018-09-12T04:30:28.098Z,57.40
2018-09-12T04:30:59.947Z,57.30
2018-09-12T04:31:32.042Z,57.30
2018-09-12T04:32:03.869Z,57.40
2018-09-12T04:32:35.800Z,57.40
2018-09-12T04:33:07.715Z,57.30
2018-09-12T04:33:39.833Z,57.50
2018-09-12T04:34:11.669Z,57.30
2018-09-12T04:34:43.908Z,57.30
2018-09-12T04:35:15.876Z,57.30
2018-09-12T04:35:47.700Z,57.40
2018-09-12T04:36:19.652Z,57.30
2018-09-12T04:36:51.514Z,57.30
2018-09-12T04:37:23.458Z,57.30
2018-09-12T04:37:55.330Z,57.30
2018-09-12T04:38:27.169Z,57.40
2018-09-12T04:38:59.090Z,57.40
2018-09-12T04:39:30.909Z,57.40
2018-09-12T04:40:02.699Z,57.40
2018-09-12T04:40:34.624Z,57.30
2018-09-12T04:41:06.461Z,57.50
2018-09-12T04:41:38.578Z,57.50
2018-09-12T04:42:10.431Z,58.00
2018-09-12T04:42:42.366Z,57.30
2018-09-12T04:43:14.488Z,57.30
2018-09-12T04:43:46.360Z,57.40
2018-09-12T04:44:18.185Z,57.30
2018-09-12T04:44:50.069Z,57.30
2018-09-12T04:45:21.909Z,57.30
2018-09-12T04:45:53.710Z,57.30
2018-09-12T04:46:25.607Z,57.40
2018-09-12T04:46:57.535Z,57.00
2018-09-12T04:47:29.460Z,57.40
2018-09-12T04:48:01.229Z,57.90
2018-09-12T04:48:33.133Z,57.30
2018-09-12T04:49:05.270Z,57.40
2018-09-12T04:49:37.142Z,57.40
2018-09-12T04:50:08.966Z,57.30
2018-09-12T04:50:40.893Z,57.30
2018-09-12T04:51:12.755Z,57.30
2018-09-12T04:51:44.685Z,57.30
2018-09-12T04:52:16.747Z,57.30
2018-09-12T04:52:48.723Z,57.30
2018-09-12T04:53:20.603Z,57.30
2018-09-12T04:53:52.503Z,57.40
2018-09-12T04:54:24.357Z,57.40
2018-09-12T04:54:56.296Z,57.30
2018-09-12T04:55:28.180Z,58.00
2018-09-12T04:55:59.983Z,57.40
2018-09-12T04:56:31.895Z,57.90
2018-09-12T04:57:03.714Z,57.30
2018-09-12T04:57:35.621Z,57.40
2018-09-12T04:58:07.436Z,57.30
2018-09-12T04:58:39.367Z,57.30
2018-09-12T04:59:11.181Z,57.30
2018-09-12T04:59:43.095Z,57.70
2018-09-12T05:00:15.125Z,57.30
2018-09-12T05:00:46.932Z,57.30
2018-09-12T05:01:18.745Z,57.40
2018-09-12T05:01:50.617Z,57.30
2018-09-12T05:02:22.401Z,57.50
2018-09-12T05:02:54.213Z,57.40
2018-09-12T05:03:26.068Z,57.40
2018-09-12T05:03:57.946Z,57.30
2018-09-12T05:04:29.895Z,57.30
2018-09-12T05:05:01.665Z,57.30
2018-09-12T05:05:33.458Z,57.40
2018-09-12T05:06:05.277Z,57.30
2018-09-12T05:06:37.062Z,57.90
2018-09-12T05:07:08.861Z,57.30
2018-09-12T05:07:40.706Z,57.40
2018-09-12T05:08:12.486Z,57.30
2018-09-12T05:08:44.359Z,57.30
2018-09-12T05:09:16.147Z,57.30
2018-09-12T05:09:47.951Z,57.40
2018-09-12T05:10:19.781Z,57.30
2018-09-12T05:10:51.898Z,57.40
2018-09-12T05:11:23.722Z,57.40
2018-09-12T05:11:55.667Z,57.40
2018-09-12T05:12:27.621Z,57.40
2018-09-12T05:12:59.706Z,57.40
2018-09-12T05:13:31.620Z,57.40
2018-09-12T05:14:03.532Z,57.40
2018-09-12T05:14:35.434Z,57.30
2018-09-12T05:15:07.250Z,57.90
2018-09-12T05:15:39.065Z,57.40
2018-09-12T05:16:10.870Z,57.40
2018-09-12T05:16:42.801Z,57.40
2018-09-12T05:17:14.969Z,57.40
2018-09-12T05:17:46.825Z,57.40
2018-09-12T05:18:18.648Z,57.00
2018-09-12T05:18:50.530Z,57.40
2018-09-12T05:19:22.422Z,57.40
2018-09-12T05:19:54.295Z,57.10
2018-09-12T05:20:26.123Z,57.40
2018-09-12T05:20:57.996Z,57.50
2018-09-12T05:21:29.833Z,57.40
2018-09-12T05:22:01.939Z,57.40
2018-09-12T05:22:33.732Z,57.40
2018-09-12T05:23:05.822Z,57.50
2018-09-12T05:23:37.796Z,57.50
2018-09-12T05:24:09.629Z,57.50
2018-09-12T05:24:41.722Z,57.50
2018-09-12T05:25:13.552Z,57.50
2018-09-12T05:25:45.331Z,57.50
2018-09-12T05:26:17.269Z,57.50
2018-09-12T05:26:49.080Z,57.50
2018-09-12T05:27:20.882Z,57.50
2018-09-12T05:27:52.835Z,57.60
2018-09-12T05:28:24.674Z,57.70
2018-09-12T05:28:56.586Z,58.20
2018-09-12T05:29:28.435Z,59.30
2018-09-12T05:30:00.248Z,59.00
2018-09-12T05:30:32.072Z,58.90
2018-09-12T05:31:03.903Z,59.40
2018-09-12T05:31:35.748Z,59.90
2018-09-12T05:32:07.543Z,60.30
2018-09-12T05:32:39.342Z,60.10
2018-09-12T05:33:11.184Z,60.30
2018-09-12T05:33:42.983Z,60.30
2018-09-12T05:34:14.784Z,60.40
2018-09-12T05:34:46.621Z,61.20
2018-09-12T05:35:18.474Z,60.70
2018-09-12T05:35:50.585Z,60.70
2018-09-12T05:36:22.692Z,60.30
2018-09-12T05:36:54.737Z,59.90
2018-09-12T05:37:26.564Z,60.50
2018-09-12T05:37:58.383Z,60.80
2018-09-12T05:38:30.352Z,60.90
2018-09-12T05:39:02.176Z,61.40
2018-09-12T05:39:34.055Z,60.70
2018-09-12T05:40:06.260Z,61.00
2018-09-12T05:40:38.045Z,60.30
2018-09-12T05:41:10.114Z,60.60
2018-09-12T05:41:42.217Z,60.70
2018-09-12T05:42:14.421Z,60.30
2018-09-12T05:42:46.266Z,60.40
2018-09-12T05:43:18.097Z,60.80
2018-09-12T05:43:49.947Z,60.70
2018-09-12T05:44:21.856Z,60.60
2018-09-12T05:44:53.743Z,60.90
2018-09-12T05:45:25.814Z,60.90
2018-09-12T05:45:57.799Z,60.70
2018-09-12T05:46:29.810Z,60.30
2018-09-12T05:47:01.627Z,61.40
2018-09-12T05:47:33.477Z,60.90
2018-09-12T05:48:05.399Z,60.80
2018-09-12T05:48:37.177Z,61.10
2018-09-12T05:49:08.962Z,60.30
2018-09-12T05:49:40.820Z,60.70
2018-09-12T05:50:12.742Z,60.60
2018-09-12T05:50:44.686Z,60.50
2018-09-12T05:51:16.492Z,60.80
2018-09-12T05:51:48.369Z,60.70
2018-09-12T05:52:20.258Z,60.80
2018-09-12T05:52:52.119Z,61.40
2018-09-12T05:53:23.918Z,60.70
2018-09-12T05:53:55.744Z,60.60
2018-09-12T05:54:27.889Z,60.60
2018-09-12T05:54:59.899Z,60.60
2018-09-12T05:55:31.710Z,60.50
2018-09-12T05:56:03.493Z,60.60
2018-09-12T05:56:35.421Z,60.60
2018-09-12T05:57:07.311Z,60.40
2018-09-12T05:57:39.141Z,60.50
2018-09-12T05:58:10.961Z,60.40
2018-09-12T05:58:42.771Z,60.50
2018-09-12T05:59:14.637Z,61.10
2018-09-12T05:59:46.471Z,60.90
2018-09-12T06:00:18.334Z,61.00
2018-09-12T06:00:50.285Z,60.90
2018-09-12T06:01:22.056Z,61.00
2018-09-12T06:01:53.891Z,61.50
2018-09-12T06:02:25.685Z,61.20
2018-09-12T06:02:57.560Z,61.50
2018-09-12T06:03:29.647Z,61.50
2018-09-12T06:04:01.609Z,61.10
2018-09-12T06:04:33.593Z,60.60
2018-09-12T06:05:05.641Z,60.70
2018-09-12T06:05:37.579Z,60.70
2018-09-12T06:06:09.473Z,60.90
2018-09-12T06:06:41.391Z,60.10
2018-09-12T06:07:13.658Z,60.30
2018-09-12T06:07:45.583Z,59.90
2018-09-12T06:08:17.516Z,60.00
2018-09-12T06:08:49.307Z,60.10
2018-09-12T06:09:21.123Z,60.10
2018-09-12T06:09:53.014Z,60.10
2018-09-12T06:10:25.313Z,60.20
2018-09-12T06:10:57.135Z,60.30
2018-09-12T06:11:28.944Z,60.20
2018-09-12T06:12:00.883Z,60.30
2018-09-12T06:12:32.754Z,60.20
2018-09-12T06:13:04.676Z,60.30
2018-09-12T06:13:36.543Z,60.30
2018-09-12T06:14:08.405Z,60.20
2018-09-12T06:14:40.460Z,60.20
2018-09-12T06:15:12.314Z,60.20
2018-09-12T06:15:44.155Z,60.20
2018-09-12T06:16:15.958Z,60.30
2018-09-12T06:16:47.894Z,60.20
2018-09-12T06:17:19.666Z,60.20
2018-09-12T06:17:51.543Z,60.10
2018-09-12T06:18:23.334Z,60.20
2018-09-12T06:18:55.183Z,60.00
2018-09-12T06:19:27.157Z,60.20
2018-09-12T06:19:58.948Z,60.10
2018-09-12T06:20:30.873Z,60.10
2018-09-12T06:21:02.701Z,60.10
2018-09-12T06:21:34.541Z,60.00
2018-09-12T06:22:06.561Z,60.00
2018-09-12T06:22:38.344Z,60.00
2018-09-12T06:23:10.269Z,60.00
2018-09-12T06:23:42.076Z,59.70
2018-09-12T06:24:13.897Z,60.00
2018-09-12T06:24:45.995Z,59.90
2018-09-12T06:25:17.785Z,59.90
2018-09-12T06:25:49.784Z,59.90
2018-09-12T06:26:21.626Z,59.80
2018-09-12T06:26:53.495Z,59.80
2018-09-12T06:27:25.385Z,59.80
2018-09-12T06:27:57.336Z,59.80
2018-09-12T06:28:29.139Z,59.60
2018-09-12T06:29:00.976Z,59.70
2018-09-12T06:29:32.806Z,59.60
2018-09-12T06:30:04.611Z,59.60
2018-09-12T06:30:36.543Z,59.60
2018-09-12T06:31:08.590Z,59.60
2018-09-12T06:31:40.439Z,59.60
2018-09-12T06:32:12.386Z,59.60
2018-09-12T06:32:44.239Z,59.50
2018-09-12T06:33:16.040Z,59.50
2018-09-12T06:33:47.957Z,59.50
2018-09-12T06:34:19.717Z,59.50
2018-09-12T06:34:51.588Z,59.50
2018-09-12T06:35:23.607Z,59.50
2018-09-12T06:35:55.376Z,59.40
2018-09-12T06:36:27.168Z,59.40
2018-09-12T06:36:59.004Z,59.40
2018-09-12T06:37:30.994Z,59.50
2018-09-12T06:38:02.929Z,59.50
2018-09-12T06:38:34.835Z,59.50
2018-09-12T06:39:06.776Z,59.50
2018-09-12T06:39:38.564Z,59.50
2018-09-12T06:40:10.569Z,59.40
2018-09-12T06:40:42.608Z,59.40
2018-09-12T06:41:14.577Z,59.20
2018-09-12T06:41:46.484Z,59.40
2018-09-12T06:42:18.276Z,59.40
2018-09-12T06:42:50.077Z,59.30
2018-09-12T06:43:21.908Z,59.30
2018-09-12T06:43:53.769Z,59.40
2018-09-12T06:44:25.718Z,59.30
2018-09-12T06:44:57.652Z,59.70
2018-09-12T06:45:29.519Z,59.30
2018-09-12T06:46:01.440Z,59.90
2018-09-12T06:46:33.458Z,59.20
2018-09-12T06:47:05.257Z,59.30
2018-09-12T06:47:37.198Z,59.20
2018-09-12T06:48:09.089Z,59.00
2018-09-12T06:48:40.852Z,59.10
2018-09-12T06:49:12.849Z,59.10
2018-09-12T06:49:44.753Z,59.60
2018-09-12T06:50:16.699Z,59.20
2018-09-12T06:50:48.606Z,59.20